createdAt,value
2023-12-29T00:02:53.512Z,98141.25
2023-12-29T00:07:02.773Z,98135.28
2023-12-29T00:11:06.360Z,98129.16
2023-12-29T00:15:10.567Z,98129.16
2023-12-29T00:19:13.930Z,98139.50
2023-12-29T00:23:18.522Z,98131.75
2023-12-29T00:27:21.475Z,98124.84
2023-12-29T00:31:24.568Z,98127.50
2023-12-29T00:35:28.183Z,98121.47
2023-12-29T00:39:39.897Z,98118.09
2023-12-29T00:43:43.387Z,98121.63
2023-12-29T00:47:46.488Z,98125.91
2023-12-29T00:51:50.062Z,98136.34
2023-12-29T00:55:54.635Z,98129.47
2023-12-29T00:59:57.695Z,98126.84
2023-12-29T01:04:00.826Z,98133.72
2023-12-29T01:08:03.964Z,98125.00
2023-12-29T01:12:09.044Z,98125.00
2023-12-29T01:16:12.254Z,98133.72
2023-12-29T01:20:15.798Z,98146.94
2023-12-29T01:24:23.933Z,98150.53
2023-12-29T01:28:31.132Z,98143.63
2023-12-29T01:32:34.265Z,98152.38
2023-12-29T01:36:37.318Z,98157.59
2023-12-29T01:40:46.975Z,98153.38
2023-12-29T01:44:55.101Z,98147.47
2023-12-29T01:48:59.922Z,98155.38
2023-12-29T01:53:05.951Z,98151.75
2023-12-29T01:57:10.180Z,98150.94
2023-12-29T02:01:16.394Z,98143.13
2023-12-29T02:05:22.892Z,98149.06
2023-12-29T02:09:26.016Z,98146.47
2023-12-29T02:13:29.100Z,98142.94
2023-12-29T02:17:40.232Z,98142.81
2023-12-29T02:21:43.487Z,98135.59
2023-12-29T02:25:48.324Z,98137.13
2023-12-29T02:30:04.616Z,98136.03
2023-12-29T02:34:12.620Z,98137.63
2023-12-29T02:38:15.869Z,98144.53
2023-12-29T02:42:52.794Z,98129.91
2023-12-29T02:47:18.085Z,98122.00
2023-12-29T02:51:23.822Z,98117.47
2023-12-29T02:55:26.862Z,98110.41
2023-12-29T02:59:31.378Z,98108.59
2023-12-29T03:03:34.714Z,98104.88
2023-12-29T03:07:37.826Z,98107.56
2023-12-29T03:11:40.841Z,98103.97
2023-12-29T03:15:45.228Z,98104.78
2023-12-29T03:19:48.468Z,98094.28
2023-12-29T03:23:51.642Z,98097.66
2023-12-29T03:27:55.068Z,98086.38
2023-12-29T03:32:00.272Z,98091.53
2023-12-29T03:36:03.308Z,98088.91
2023-12-29T03:40:07.596Z,98082.94
2023-12-29T03:44:10.657Z,98071.72
2023-12-29T03:48:15.148Z,98069.19
2023-12-29T03:52:18.394Z,98068.38
2023-12-29T03:56:21.698Z,98065.59
2023-12-29T04:00:24.723Z,98068.19
2023-12-29T04:04:29.327Z,98066.50
2023-12-29T04:08:32.503Z,98064.84
2023-12-29T04:12:35.597Z,98064.75
2023-12-29T04:16:39.932Z,98063.88
2023-12-29T04:20:44.370Z,98070.72
2023-12-29T04:24:48.769Z,98076.63
2023-12-29T04:28:51.910Z,98072.09
2023-12-29T04:32:55.124Z,98064.16
2023-12-29T04:37:00.108Z,98065.94
2023-12-29T04:41:03.362Z,98068.03
2023-12-29T04:45:07.331Z,98059.44
2023-12-29T04:49:10.629Z,98066.59
2023-12-29T04:53:15.084Z,98063.16
2023-12-29T04:57:18.282Z,98054.41
2023-12-29T05:01:21.423Z,98056.06
2023-12-29T05:05:24.608Z,98057.75
2023-12-29T05:09:29.109Z,98054.22
2023-12-29T05:13:32.168Z,98051.63
2023-12-29T05:17:35.237Z,98057.63
2023-12-29T05:21:38.284Z,98062.84
2023-12-29T05:25:43.195Z,98057.44
2023-12-29T05:29:46.381Z,98052.06
2023-12-29T05:33:49.549Z,98053.72
2023-12-29T05:37:52.875Z,98047.28
2023-12-29T05:41:57.415Z,98053.66
2023-12-29T05:46:00.742Z,98056.88
2023-12-29T05:50:04.073Z,98064.56
2023-12-29T05:54:07.487Z,98068.09
2023-12-29T05:58:12.112Z,98068.25
2023-12-29T06:02:15.487Z,98063.03
2023-12-29T06:06:18.915Z,98062.84
2023-12-29T06:10:22.021Z,98070.53
2023-12-29T06:14:26.589Z,98070.44
2023-12-29T06:18:30.082Z,98063.63
2023-12-29T06:22:33.361Z,98067.94
2023-12-29T06:26:36.523Z,98067.94
2023-12-29T06:30:41.063Z,98069.59
2023-12-29T06:34:44.506Z,98067.75
2023-12-29T06:38:49.966Z,98074.66
2023-12-29T06:42:53.128Z,98065.91
2023-12-29T06:46:57.681Z,98060.69
2023-12-29T06:51:02.141Z,98070.44
2023-12-29T06:55:05.865Z,98067.91
2023-12-29T06:59:09.426Z,98070.00
2023-12-29T07:03:16.717Z,98072.84
2023-12-29T07:07:21.882Z,98065.44
2023-12-29T07:11:25.047Z,98068.19
2023-12-29T07:15:30.060Z,98065.13
2023-12-29T07:19:38.561Z,98068.31
2023-12-29T07:23:43.136Z,98068.16
2023-12-29T07:27:46.404Z,98073.38
2023-12-29T07:31:50.261Z,98079.53
2023-12-29T07:35:55.014Z,98085.69
2023-12-29T07:39:58.257Z,98068.50
2023-12-29T07:44:01.526Z,98080.31
2023-12-29T07:48:08.783Z,98078.69
2023-12-29T07:52:15.401Z,98078.63
2023-12-29T07:56:18.611Z,98076.72
2023-12-29T08:00:23.256Z,98066.13
2023-12-29T08:04:27.638Z,98080.94
2023-12-29T08:08:32.289Z,98080.31
2023-12-29T08:12:35.782Z,98080.94
2023-12-29T08:16:40.527Z,98073.88
2023-12-29T08:20:43.618Z,98077.31
2023-12-29T08:24:48.195Z,98078.41
2023-12-29T08:28:51.356Z,98083.84
2023-12-29T08:32:54.387Z,98078.63
2023-12-29T08:36:57.542Z,98085.53
2023-12-29T08:41:02.125Z,98086.47
2023-12-29T08:45:07.171Z,98086.34
2023-12-29T08:49:10.660Z,98083.66
2023-12-29T08:53:14.580Z,98077.91
2023-12-29T08:57:19.012Z,98071.88
2023-12-29T09:01:22.277Z,98071.44
2023-12-29T09:05:27.321Z,98078.38
2023-12-29T09:09:30.394Z,98083.53
2023-12-29T09:13:34.941Z,98085.41
2023-12-29T09:17:38.146Z,98091.56
2023-12-29T09:21:43.298Z,98087.66
2023-12-29T09:25:46.493Z,98086.41
2023-12-29T09:29:52.193Z,98096.78
2023-12-29T09:33:55.302Z,98080.63
2023-12-29T09:37:58.383Z,98090.72
2023-12-29T09:42:02.808Z,98087.03
2023-12-29T09:46:09.605Z,98083.13
2023-12-29T09:50:14.304Z,98094.94
2023-12-29T09:54:18.002Z,98093.75
2023-12-29T09:58:24.461Z,98089.16
2023-12-29T10:02:28.981Z,98083.91
2023-12-29T10:06:38.523Z,98088.00
2023-12-29T10:10:43.420Z,98099.34
2023-12-29T10:14:50.836Z,98081.66
2023-12-29T10:19:05.732Z,98076.56
2023-12-29T10:23:14.265Z,98069.75
2023-12-29T10:27:17.550Z,98056.22
2023-12-29T10:31:20.841Z,98045.81
2023-12-29T10:35:27.811Z,98045.38
2023-12-29T10:39:31.950Z,98038.97
2023-12-29T10:43:34.847Z,98047.44
2023-12-29T10:47:39.665Z,98036.44
2023-12-29T10:51:44.184Z,98032.00
2023-12-29T10:55:47.357Z,98029.03
2023-12-29T10:59:57.248Z,98030.03
2023-12-29T11:04:01.020Z,98014.09
2023-12-29T11:08:18.023Z,98008.84
2023-12-29T11:12:21.226Z,97999.75
2023-12-29T11:16:25.247Z,98003.34
2023-12-29T11:20:28.770Z,98003.34
2023-12-29T11:24:38.493Z,98002.41
2023-12-29T11:28:45.246Z,98001.91
2023-12-29T11:32:53.747Z,97995.88
2023-12-29T11:37:08.028Z,97984.38
2023-12-29T11:41:15.894Z,97989.06
2023-12-29T11:45:31.107Z,97990.16
2023-12-29T11:50:03.547Z,97988.81
2023-12-29T11:54:07.452Z,97970.03
2023-12-29T12:02:38.694Z,97974.44
2023-12-29T12:06:42.040Z,97967.41
2023-12-29T12:10:45.230Z,97965.19
2023-12-29T12:14:50.651Z,97963.72
2023-12-29T12:18:55.396Z,97958.47
2023-12-29T12:23:00.472Z,97940.06
2023-12-29T12:27:03.818Z,97928.25
2023-12-29T12:31:08.127Z,97925.34
2023-12-29T12:35:20.275Z,97925.63
2023-12-29T12:39:24.663Z,97914.44
2023-12-29T12:43:30.284Z,97909.75
2023-12-29T12:47:38.077Z,97918.81
2023-12-29T12:51:42.860Z,97902.72
2023-12-29T12:55:46.040Z,97900.50
2023-12-29T12:59:51.424Z,97900.44
2023-12-29T13:03:55.316Z,97900.16
2023-12-29T13:07:59.917Z,97898.03
2023-12-29T13:12:13.724Z,97894.34
2023-12-29T13:16:16.970Z,97900.72
2023-12-29T13:20:20.074Z,97902.06
2023-12-29T13:24:24.887Z,97910.94
2023-12-29T13:28:29.245Z,97919.41
2023-12-29T13:32:36.141Z,97925.50
2023-12-29T13:36:44.880Z,97907.31
2023-12-29T13:40:58.324Z,97907.16
2023-12-29T13:45:03.718Z,97903.31
2023-12-29T13:49:08.576Z,97907.47
2023-12-29T13:53:19.767Z,97908.06
2023-12-29T13:57:33.671Z,97918.47
2023-12-29T14:01:41.095Z,97902.28
2023-12-29T14:05:51.181Z,97899.09
2023-12-29T14:09:56.419Z,97894.06
2023-12-29T14:14:00.997Z,97902.00
2023-12-29T14:18:06.644Z,97898.94
2023-12-29T14:22:09.759Z,97906.66
2023-12-29T14:26:12.837Z,97911.81
2023-12-29T14:30:23.075Z,97911.09
2023-12-29T14:34:26.308Z,97916.94
2023-12-29T14:38:29.499Z,97915.47
2023-12-29T14:42:32.594Z,97913.78
2023-12-29T14:46:38.333Z,97919.13
2023-12-29T14:50:47.592Z,97915.63
2023-12-29T14:54:50.711Z,97923.47
2023-12-29T14:58:53.926Z,97925.84
2023-12-29T15:02:58.426Z,97929.88
2023-12-29T15:07:01.674Z,97928.63
2023-12-29T15:11:06.026Z,97930.75
2023-12-29T15:15:09.572Z,97932.88
2023-12-29T15:19:14.703Z,97943.00
2023-12-29T15:23:17.704Z,97944.28
2023-12-29T15:27:20.621Z,97952.50
2023-12-29T15:31:25.291Z,97944.75
2023-12-29T15:35:29.711Z,97943.25
2023-12-29T15:39:32.634Z,97946.81
2023-12-29T15:43:41.692Z,97957.34
2023-12-29T15:47:47.437Z,97944.94
2023-12-29T15:51:51.814Z,97946.63
2023-12-29T15:55:54.837Z,97941.38
2023-12-29T15:59:57.902Z,97929.19
2023-12-29T16:04:01.088Z,97933.63
2023-12-29T16:08:06.071Z,97935.88
2023-12-29T16:22:24.792Z,97936.50
2023-12-29T20:21:34.717Z,97982.88
2023-12-29T20:25:40.231Z,98004.66
2023-12-29T20:29:43.438Z,98004.38
2023-12-29T20:33:46.846Z,97999.88
2023-12-29T20:37:51.754Z,98000.53
2023-12-29T20:41:55.087Z,98005.66
2023-12-29T20:45:58.311Z,98008.28
2023-12-29T20:50:01.616Z,98003.97
2023-12-29T20:54:08.414Z,98010.16
2023-12-29T20:58:11.673Z,98014.56
2023-12-29T21:02:15.557Z,98011.19
2023-12-29T21:06:21.600Z,98009.63
2023-12-29T21:10:30.642Z,98016.81
2023-12-29T21:14:36.356Z,98012.84
2023-12-29T21:18:39.646Z,98007.72
2023-12-29T21:22:44.213Z,98006.19
2023-12-29T21:26:48.924Z,97999.59
2023-12-29T21:30:52.312Z,97991.09
2023-12-29T21:34:55.673Z,97989.63
2023-12-29T21:38:59.955Z,97990.53
2023-12-29T21:43:04.794Z,97991.59
2023-12-29T21:47:08.195Z,98005.41
2023-12-29T21:51:13.261Z,98001.84
2023-12-29T21:55:16.533Z,98008.97
2023-12-29T21:59:21.179Z,98012.72
2023-12-29T22:03:24.414Z,98014.59
2023-12-29T22:07:27.651Z,98013.94
2023-12-29T22:11:30.968Z,98015.00
2023-12-29T22:15:35.630Z,98014.34
2023-12-29T22:19:40.546Z,98011.81
2023-12-29T22:23:44.441Z,98017.06
2023-12-29T22:27:47.760Z,98009.28
2023-12-29T22:31:54.518Z,98022.66
2023-12-29T22:35:57.912Z,98031.00
2023-12-29T22:40:01.307Z,98047.09
2023-12-29T22:44:04.608Z,98038.31
2023-12-29T22:48:09.572Z,98037.28
2023-12-29T22:52:12.920Z,98028.28
2023-12-29T22:56:16.113Z,98031.47
2023-12-29T23:00:22.067Z,98035.00
2023-12-29T23:04:26.962Z,98031.63
2023-12-29T23:08:30.112Z,98028.47
2023-12-29T23:12:33.442Z,98041.75
2023-12-29T23:16:38.377Z,98045.41
2023-12-29T23:20:43.161Z,98043.06
2023-12-29T23:25:05.461Z,98042.31
2023-12-29T23:35:25.212Z,98034.97
2023-12-29T23:51:31.069Z,98032.94
2023-12-29T23:55:34.419Z,98034.91
2023-12-29T23:59:37.786Z,98035.91
